EZY52GN GVAC-EGCC
Flight info
| Callsign | EZY52GN |
|---|---|
| Flight time | N/A |
| Altitude | 33000 |
| Route | DIMKI1A DIMKI DCT IPERA N873 LIMAL DCT URQUI DCT GOMER DCT PITAB DCT BIMBO DCT ROLAR DCT TABAX/N0437F360 DCT VEDEL DCT MIMBO DCT RIPEL DCT ADVAT/M076F370 T290 GELPO DCT JABEX/N0439F370 DCT BIBLA DCT GOTEM DCT BOFUM Q37 MALUD |
| Aircraft | A320/M-SDE2E3FGHIRWXY/LB1 |
Departure
| Time | 2026-04-30 06:02 |
|---|---|
| Airport | Amílcar Cabral International Airport (GVAC) |
Arrival
| Time | N/A |
|---|---|
| Airport | Manchester Airport (EGCC) |
| Time | Latitude | Longitude | Altitude | Speed | Heading |
|---|---|---|---|---|---|
| 2026-04-30 05:37 | 16.73362 | -22.94508 | 150 ft | 0 kts | 90° |
| 2026-04-30 05:53 | 16.73362 | -22.94509 | 150 ft | 2 kts | 90° |
| 2026-04-30 05:53 | 16.73362 | -22.94535 | 150 ft | 4 kts | 94° |
| 2026-04-30 05:54 | 16.73365 | -22.94563 | 150 ft | 4 kts | 104° |
| 2026-04-30 05:54 | 16.73375 | -22.94587 | 150 ft | 4 kts | 141° |
| 2026-04-30 05:54 | 16.73387 | -22.94594 | 150 ft | 0 kts | 179° |
| 2026-04-30 05:57 | 16.73385 | -22.94594 | 150 ft | 2 kts | 179° |
| 2026-04-30 05:57 | 16.73378 | -22.94594 | 150 ft | 0 kts | 179° |
| 2026-04-30 05:58 | 16.73347 | -22.94593 | 150 ft | 8 kts | 179° |
| 2026-04-30 05:58 | 16.73301 | -22.94593 | 150 ft | 6 kts | 180° |
| 2026-04-30 05:58 | 16.73257 | -22.94593 | 150 ft | 8 kts | 180° |
| 2026-04-30 05:58 | 16.73179 | -22.94593 | 150 ft | 14 kts | 179° |
| 2026-04-30 05:59 | 16.73082 | -22.94608 | 150 ft | 15 kts | 223° |
| 2026-04-30 05:59 | 16.73012 | -22.94688 | 150 ft | 17 kts | 177° |
| 2026-04-30 05:59 | 16.72899 | -22.94688 | 150 ft | 17 kts | 180° |
| 2026-04-30 05:59 | 16.72774 | -22.94689 | 150 ft | 20 kts | 180° |
| 2026-04-30 06:00 | 16.72630 | -22.94687 | 150 ft | 22 kts | 179° |
| 2026-04-30 06:00 | 16.72504 | -22.94688 | 150 ft | 10 kts | 180° |
| 2026-04-30 06:00 | 16.72427 | -22.94691 | 150 ft | 12 kts | 197° |
| 2026-04-30 06:00 | 16.72405 | -22.94775 | 149 ft | 14 kts | 269° |
| 2026-04-30 06:01 | 16.72410 | -22.94859 | 149 ft | 12 kts | 297° |
| 2026-04-30 06:01 | 16.72489 | -22.94887 | 150 ft | 12 kts | 358° |
| 2026-04-30 06:01 | 16.72511 | -22.94887 | 150 ft | 2 kts | 359° |
| 2026-04-30 06:01 | 16.72740 | -22.94886 | 149 ft | 70 kts | 0° |
| 2026-04-30 06:02 | 16.73430 | -22.94891 | 153 ft | 129 kts | 359° |
| 2026-04-30 06:02 | 16.74492 | -22.94895 | 202 ft | 171 kts | 0° |
| 2026-04-30 06:02 | 16.75695 | -22.94903 | 815 ft | 173 kts | 1° |
| 2026-04-30 06:02 | 16.76897 | -22.94913 | 1536 ft | 173 kts | 1° |
| 2026-04-30 06:03 | 16.78150 | -22.94924 | 1846 ft | 190 kts | 1° |
| 2026-04-30 06:03 | 16.79546 | -22.94931 | 2046 ft | 211 kts | 1° |
| 2026-04-30 06:03 | 16.81081 | -22.94941 | 2307 ft | 233 kts | 1° |
| 2026-04-30 06:03 | 16.82774 | -22.94953 | 2730 ft | 250 kts | 0° |
| 2026-04-30 06:04 | 16.84529 | -22.94967 | 3469 ft | 254 kts | 0° |
| 2026-04-30 06:04 | 16.86279 | -22.94981 | 4242 ft | 257 kts | 360° |
| 2026-04-30 06:04 | 16.88084 | -22.94993 | 4950 ft | 263 kts | 359° |
| 2026-04-30 06:05 | 16.91803 | -22.94769 | 6252 ft | 275 kts | 14° |
| 2026-04-30 06:05 | 16.93581 | -22.93969 | 6863 ft | 283 kts | 31° |
| 2026-04-30 06:05 | 16.95218 | -22.92788 | 7472 ft | 288 kts | 33° |
| 2026-04-30 06:05 | 16.96880 | -22.91582 | 8082 ft | 293 kts | 33° |
| 2026-04-30 06:06 | 16.98567 | -22.90367 | 8664 ft | 297 kts | 33° |
| 2026-04-30 06:06 | 17.00283 | -22.89132 | 9239 ft | 301 kts | 33° |
| 2026-04-30 06:06 | 17.01997 | -22.87899 | 9804 ft | 305 kts | 33° |
| 2026-04-30 06:06 | 17.03755 | -22.86630 | 10357 ft | 310 kts | 33° |
| 2026-04-30 06:07 | 17.05591 | -22.85307 | 10497 ft | 331 kts | 33° |
| 2026-04-30 06:07 | 17.07531 | -22.83909 | 10755 ft | 345 kts | 33° |
| 2026-04-30 06:07 | 17.09526 | -22.82470 | 11256 ft | 351 kts | 33° |
| 2026-04-30 06:07 | 17.11545 | -22.81013 | 11810 ft | 355 kts | 33° |
| 2026-04-30 06:08 | 17.13584 | -22.79539 | 12368 ft | 358 kts | 33° |
| 2026-04-30 06:08 | 17.15642 | -22.78051 | 12925 ft | 361 kts | 33° |
| 2026-04-30 06:08 | 17.17716 | -22.76548 | 13506 ft | 363 kts | 33° |
| 2026-04-30 06:08 | 17.19798 | -22.75037 | 14054 ft | 366 kts | 33° |
| 2026-04-30 06:09 | 17.21865 | -22.73536 | 14596 ft | 367 kts | 33° |
| 2026-04-30 06:09 | 17.23974 | -22.72006 | 15116 ft | 370 kts | 33° |
| 2026-04-30 06:09 | 17.26089 | -22.70474 | 15638 ft | 372 kts | 33° |
| 2026-04-30 06:09 | 17.28224 | -22.68931 | 16142 ft | 374 kts | 33° |
| 2026-04-30 06:10 | 17.30370 | -22.67379 | 16649 ft | 376 kts | 33° |
| 2026-04-30 06:10 | 17.32522 | -22.65820 | 17136 ft | 377 kts | 34° |
| 2026-04-30 06:10 | 17.34684 | -22.64253 | 17619 ft | 379 kts | 34° |
| 2026-04-30 06:10 | 17.36859 | -22.62675 | 18089 ft | 381 kts | 34° |
| 2026-04-30 06:11 | 17.39012 | -22.61113 | 18537 ft | 383 kts | 34° |
| 2026-04-30 06:11 | 17.41211 | -22.59519 | 18962 ft | 386 kts | 33° |
| 2026-04-30 06:11 | 17.43427 | -22.57914 | 19365 ft | 389 kts | 33° |
| 2026-04-30 06:11 | 17.45660 | -22.56293 | 19769 ft | 392 kts | 33° |
| 2026-04-30 06:12 | 17.47907 | -22.54659 | 20160 ft | 395 kts | 33° |
| 2026-04-30 06:12 | 17.50173 | -22.53011 | 20542 ft | 398 kts | 33° |
| 2026-04-30 06:12 | 17.52456 | -22.51350 | 20912 ft | 401 kts | 33° |
| 2026-04-30 06:12 | 17.54724 | -22.49702 | 21270 ft | 403 kts | 33° |
| 2026-04-30 06:13 | 17.57036 | -22.48023 | 21635 ft | 406 kts | 32° |
| 2026-04-30 06:13 | 17.59369 | -22.46329 | 21959 ft | 409 kts | 32° |
| 2026-04-30 06:13 | 17.61712 | -22.44625 | 22284 ft | 412 kts | 32° |
| 2026-04-30 06:13 | 17.64074 | -22.42906 | 22600 ft | 415 kts | 32° |
| 2026-04-30 06:14 | 17.66454 | -22.41174 | 22927 ft | 417 kts | 32° |
| 2026-04-30 06:14 | 17.68846 | -22.39435 | 23237 ft | 420 kts | 32° |
| 2026-04-30 06:14 | 17.71250 | -22.37680 | 23554 ft | 423 kts | 32° |
| 2026-04-30 06:14 | 17.73672 | -22.35909 | 23854 ft | 425 kts | 32° |
| 2026-04-30 06:15 | 17.76105 | -22.34131 | 24155 ft | 428 kts | 32° |
| 2026-04-30 06:15 | 17.78517 | -22.32372 | 24442 ft | 430 kts | 31° |
| 2026-04-30 06:15 | 17.80986 | -22.30574 | 24734 ft | 432 kts | 31° |
| 2026-04-30 06:15 | 17.83462 | -22.28775 | 25023 ft | 434 kts | 31° |
| 2026-04-30 06:16 | 17.85947 | -22.26968 | 25316 ft | 436 kts | 31° |
| 2026-04-30 06:16 | 17.88435 | -22.25154 | 25629 ft | 436 kts | 30° |
| 2026-04-30 06:16 | 17.90961 | -22.23400 | 25989 ft | 435 kts | 27° |
| 2026-04-30 06:16 | 17.93542 | -22.21750 | 26299 ft | 434 kts | 25° |
| 2026-04-30 06:17 | 17.96160 | -22.20166 | 26579 ft | 435 kts | 24° |
| 2026-04-30 06:17 | 17.98806 | -22.18605 | 26870 ft | 436 kts | 24° |
| 2026-04-30 06:17 | 18.01425 | -22.17066 | 27116 ft | 438 kts | 24° |
| 2026-04-30 06:17 | 18.04080 | -22.15483 | 27386 ft | 440 kts | 24° |
| 2026-04-30 06:18 | 18.06734 | -22.13872 | 27647 ft | 441 kts | 24° |
| 2026-04-30 06:18 | 18.09390 | -22.12237 | 27882 ft | 443 kts | 25° |
| 2026-04-30 06:18 | 18.12048 | -22.10590 | 28134 ft | 445 kts | 24° |
| 2026-04-30 06:18 | 18.14711 | -22.08935 | 28385 ft | 446 kts | 24° |
| 2026-04-30 06:19 | 18.17396 | -22.07268 | 28623 ft | 448 kts | 24° |
| 2026-04-30 06:19 | 18.20082 | -22.05601 | 28872 ft | 449 kts | 24° |
| 2026-04-30 06:19 | 18.22775 | -22.03931 | 29115 ft | 450 kts | 24° |
| 2026-04-30 06:19 | 18.25445 | -22.02280 | 29339 ft | 452 kts | 24° |
| 2026-04-30 06:20 | 18.28159 | -22.00607 | 29551 ft | 453 kts | 24° |
| 2026-04-30 06:20 | 18.30884 | -21.98926 | 29800 ft | 455 kts | 24° |
| 2026-04-30 06:20 | 18.33618 | -21.97237 | 30019 ft | 456 kts | 24° |
| 2026-04-30 06:20 | 18.36362 | -21.95545 | 30226 ft | 458 kts | 24° |
| 2026-04-30 06:21 | 18.39115 | -21.93851 | 30434 ft | 459 kts | 24° |
| 2026-04-30 06:21 | 18.41873 | -21.92150 | 30620 ft | 461 kts | 24° |
| 2026-04-30 06:21 | 18.44649 | -21.90431 | 30806 ft | 463 kts | 24° |
| 2026-04-30 06:21 | 18.47429 | -21.88706 | 30977 ft | 465 kts | 24° |
| 2026-04-30 06:22 | 18.50182 | -21.86995 | 31149 ft | 466 kts | 24° |
| 2026-04-30 06:22 | 18.52983 | -21.85252 | 31322 ft | 468 kts | 24° |
| 2026-04-30 06:22 | 18.55793 | -21.83503 | 31483 ft | 470 kts | 24° |
| 2026-04-30 06:22 | 18.58609 | -21.81757 | 31691 ft | 470 kts | 24° |
| 2026-04-30 06:23 | 18.61432 | -21.80011 | 31929 ft | 470 kts | 24° |
| 2026-04-30 06:23 | 18.64253 | -21.78263 | 32166 ft | 470 kts | 24° |
| 2026-04-30 06:23 | 18.67069 | -21.76515 | 32400 ft | 470 kts | 24° |
| 2026-04-30 06:23 | 18.69889 | -21.74764 | 32650 ft | 470 kts | 24° |
| 2026-04-30 06:24 | 18.72702 | -21.73014 | 32868 ft | 470 kts | 24° |
| 2026-04-30 06:24 | 18.75479 | -21.71286 | 33013 ft | 470 kts | 24° |
| 2026-04-30 06:24 | 18.78275 | -21.69546 | 33049 ft | 465 kts | 23° |
| 2026-04-30 06:25 | 18.83831 | -21.66091 | 33039 ft | 463 kts | 23° |
| 2026-04-30 06:25 | 18.89372 | -21.62643 | 33048 ft | 462 kts | 23° |
| 2026-04-30 06:26 | 18.94919 | -21.59185 | 33039 ft | 462 kts | 23° |
| 2026-04-30 06:26 | 19.00420 | -21.55751 | 33047 ft | 462 kts | 23° |
| 2026-04-30 06:27 | 19.05961 | -21.52296 | 33042 ft | 462 kts | 23° |
| 2026-04-30 06:27 | 19.11496 | -21.48845 | 33041 ft | 462 kts | 23° |
| 2026-04-30 06:28 | 19.17032 | -21.45379 | 33041 ft | 462 kts | 23° |
| 2026-04-30 06:28 | 19.22525 | -21.41935 | 33036 ft | 462 kts | 23° |
| 2026-04-30 06:29 | 19.28060 | -21.38474 | 33030 ft | 462 kts | 23° |
| 2026-04-30 06:29 | 19.33597 | -21.35007 | 33030 ft | 463 kts | 23° |
| 2026-04-30 06:30 | 19.39135 | -21.31531 | 33033 ft | 463 kts | 23° |
| 2026-04-30 06:30 | 19.44636 | -21.28076 | 33032 ft | 463 kts | 23° |
| 2026-04-30 06:31 | 19.50178 | -21.24601 | 33037 ft | 463 kts | 23° |
| 2026-04-30 06:31 | 19.55717 | -21.21113 | 33037 ft | 463 kts | 23° |
| 2026-04-30 06:32 | 19.61262 | -21.17617 | 33037 ft | 463 kts | 23° |
| 2026-04-30 06:32 | 19.66767 | -21.14150 | 33043 ft | 463 kts | 23° |
| 2026-04-30 06:33 | 19.72303 | -21.10670 | 33033 ft | 462 kts | 23° |
| 2026-04-30 06:33 | 19.77840 | -21.07185 | 33037 ft | 462 kts | 23° |
| 2026-04-30 06:34 | 19.83366 | -21.03699 | 33030 ft | 462 kts | 23° |
| 2026-04-30 06:34 | 19.88851 | -21.00220 | 33030 ft | 463 kts | 23° |
| 2026-04-30 06:35 | 19.94380 | -20.96713 | 33032 ft | 463 kts | 23° |
| 2026-04-30 06:35 | 19.99912 | -20.93218 | 33033 ft | 463 kts | 23° |
| 2026-04-30 06:36 | 20.05449 | -20.89726 | 33035 ft | 463 kts | 24° |
| 2026-04-30 06:36 | 20.10946 | -20.86246 | 33037 ft | 463 kts | 24° |
| 2026-04-30 06:37 | 20.16487 | -20.82728 | 33032 ft | 464 kts | 24° |
| 2026-04-30 06:37 | 20.22023 | -20.79206 | 33031 ft | 464 kts | 24° |
| 2026-04-30 06:38 | 20.27561 | -20.75683 | 33031 ft | 464 kts | 24° |
| 2026-04-30 06:38 | 20.33066 | -20.72183 | 33031 ft | 464 kts | 24° |
| 2026-04-30 06:39 | 20.38614 | -20.68657 | 33029 ft | 464 kts | 24° |
| 2026-04-30 06:39 | 20.44161 | -20.65126 | 33035 ft | 464 kts | 24° |
| 2026-04-30 06:40 | 20.49700 | -20.61582 | 33038 ft | 464 kts | 24° |
| 2026-04-30 06:40 | 20.55198 | -20.58054 | 33042 ft | 464 kts | 24° |
| 2026-04-30 06:41 | 20.60741 | -20.54507 | 33041 ft | 465 kts | 24° |
| 2026-04-30 06:41 | 20.66281 | -20.50964 | 33042 ft | 464 kts | 24° |
| 2026-04-30 06:42 | 20.71820 | -20.47412 | 33040 ft | 464 kts | 24° |
| 2026-04-30 06:42 | 20.77320 | -20.43875 | 33039 ft | 464 kts | 24° |
| 2026-04-30 06:43 | 20.82859 | -20.40321 | 33040 ft | 465 kts | 24° |
| 2026-04-30 06:43 | 20.88403 | -20.36761 | 33046 ft | 465 kts | 24° |
| 2026-04-30 06:44 | 20.93942 | -20.33195 | 33047 ft | 465 kts | 24° |
| 2026-04-30 06:44 | 20.99443 | -20.29643 | 33054 ft | 465 kts | 24° |
| 2026-04-30 06:45 | 21.04981 | -20.26071 | 33057 ft | 465 kts | 24° |
| 2026-04-30 06:45 | 21.10518 | -20.22505 | 33061 ft | 464 kts | 24° |
| 2026-04-30 06:46 | 21.16060 | -20.18935 | 33064 ft | 465 kts | 25° |
| 2026-04-30 06:46 | 21.21555 | -20.15384 | 33066 ft | 464 kts | 25° |
| 2026-04-30 06:47 | 21.27088 | -20.11800 | 33065 ft | 465 kts | 25° |
| 2026-04-30 06:47 | 21.32616 | -20.08215 | 33068 ft | 464 kts | 25° |
| 2026-04-30 06:48 | 21.38148 | -20.04629 | 33068 ft | 464 kts | 25° |
| 2026-04-30 06:48 | 21.43634 | -20.01066 | 33069 ft | 464 kts | 25° |
| 2026-04-30 06:49 | 21.49163 | -19.97484 | 33068 ft | 464 kts | 25° |
| 2026-04-30 06:49 | 21.54690 | -19.93911 | 33067 ft | 464 kts | 25° |
| 2026-04-30 06:50 | 21.60212 | -19.90314 | 33067 ft | 464 kts | 25° |
| 2026-04-30 06:50 | 21.65687 | -19.86738 | 33061 ft | 464 kts | 25° |
| 2026-04-30 06:51 | 21.71206 | -19.83140 | 33059 ft | 464 kts | 25° |
| 2026-04-30 06:51 | 21.76727 | -19.79545 | 33060 ft | 464 kts | 25° |
| 2026-04-30 06:52 | 21.82246 | -19.75950 | 33060 ft | 464 kts | 25° |
| 2026-04-30 06:52 | 21.87725 | -19.72377 | 33061 ft | 464 kts | 25° |
| 2026-04-30 06:53 | 21.93234 | -19.68768 | 33061 ft | 464 kts | 26° |
| 2026-04-30 06:53 | 21.98738 | -19.65156 | 33061 ft | 464 kts | 25° |
| 2026-04-30 06:54 | 22.04255 | -19.61545 | 33061 ft | 463 kts | 26° |
| 2026-04-30 06:54 | 22.09724 | -19.57961 | 33063 ft | 463 kts | 25° |
| 2026-04-30 06:55 | 22.15225 | -19.54354 | 33063 ft | 463 kts | 25° |
| 2026-04-30 06:55 | 22.20719 | -19.50741 | 33063 ft | 463 kts | 25° |
| 2026-04-30 06:56 | 22.26217 | -19.47129 | 33063 ft | 462 kts | 25° |
| 2026-04-30 06:56 | 22.31704 | -19.43517 | 33063 ft | 462 kts | 25° |
| 2026-04-30 06:57 | 22.37143 | -19.39933 | 33061 ft | 461 kts | 25° |
| 2026-04-30 06:57 | 22.42621 | -19.36321 | 33062 ft | 461 kts | 25° |
| 2026-04-30 06:58 | 22.48091 | -19.32714 | 33062 ft | 460 kts | 25° |
| 2026-04-30 06:58 | 22.53548 | -19.29105 | 33061 ft | 460 kts | 25° |
| 2026-04-30 06:59 | 22.58961 | -19.25517 | 33062 ft | 459 kts | 25° |
| 2026-04-30 06:59 | 22.64412 | -19.21908 | 33060 ft | 459 kts | 25° |
| 2026-04-30 07:00 | 22.68939 | -19.18917 | 33057 ft | 459 kts | 25° |
| 2026-04-30 07:00 | 22.75299 | -19.14701 | 33058 ft | 458 kts | 25° |
| 2026-04-30 07:01 | 22.80695 | -19.11116 | 33056 ft | 458 kts | 25° |
| 2026-04-30 07:01 | 22.86122 | -19.07516 | 33056 ft | 457 kts | 25° |
| 2026-04-30 07:02 | 22.91540 | -19.03920 | 33052 ft | 457 kts | 25° |
| 2026-04-30 07:02 | 22.96952 | -19.00306 | 33054 ft | 456 kts | 25° |
| 2026-04-30 07:03 | 23.02321 | -18.96725 | 33051 ft | 456 kts | 25° |
| 2026-04-30 07:03 | 23.07728 | -18.93126 | 33054 ft | 455 kts | 25° |
| 2026-04-30 07:04 | 23.13118 | -18.89530 | 33050 ft | 455 kts | 25° |
| 2026-04-30 07:04 | 23.18501 | -18.85923 | 33050 ft | 454 kts | 25° |
| 2026-04-30 07:05 | 23.26538 | -18.80550 | 33050 ft | 454 kts | 24° |
| 2026-04-30 07:05 | 23.31921 | -18.76956 | 33054 ft | 454 kts | 24° |
| 2026-04-30 07:06 | 23.37293 | -18.73358 | 33056 ft | 453 kts | 24° |
| 2026-04-30 07:06 | 23.42659 | -18.69756 | 33058 ft | 453 kts | 24° |
| 2026-04-30 07:07 | 23.47986 | -18.66177 | 33062 ft | 453 kts | 24° |
| 2026-04-30 07:07 | 23.53344 | -18.62574 | 33063 ft | 452 kts | 24° |
| 2026-04-30 07:08 | 23.58690 | -18.58966 | 33064 ft | 452 kts | 24° |
| 2026-04-30 07:08 | 23.64027 | -18.55357 | 33063 ft | 451 kts | 24° |
| 2026-04-30 07:09 | 23.69324 | -18.51784 | 33064 ft | 450 kts | 24° |
| 2026-04-30 07:09 | 23.74654 | -18.48199 | 33064 ft | 450 kts | 24° |
| 2026-04-30 07:10 | 23.79981 | -18.44607 | 33062 ft | 450 kts | 24° |
| 2026-04-30 07:10 | 23.85297 | -18.41011 | 33062 ft | 449 kts | 24° |
| 2026-04-30 07:11 | 23.90604 | -18.37414 | 33063 ft | 449 kts | 24° |
| 2026-04-30 07:11 | 23.95873 | -18.33836 | 33065 ft | 449 kts | 24° |
| 2026-04-30 07:12 | 24.01177 | -18.30237 | 33068 ft | 448 kts | 23° |
| 2026-04-30 07:12 | 24.06476 | -18.26645 | 33073 ft | 448 kts | 23° |
| 2026-04-30 07:13 | 24.11772 | -18.23057 | 33074 ft | 448 kts | 23° |
| 2026-04-30 07:13 | 24.17030 | -18.19485 | 33074 ft | 448 kts | 23° |
| 2026-04-30 07:14 | 24.22315 | -18.15882 | 33072 ft | 447 kts | 24° |
| 2026-04-30 07:14 | 24.27605 | -18.12278 | 33075 ft | 447 kts | 23° |
| 2026-04-30 07:15 | 24.32888 | -18.08672 | 33079 ft | 447 kts | 24° |
| 2026-04-30 07:15 | 24.38126 | -18.05083 | 33087 ft | 447 kts | 24° |
| 2026-04-30 07:16 | 24.43398 | -18.01476 | 33090 ft | 447 kts | 24° |
| 2026-04-30 07:16 | 24.48674 | -17.97876 | 33094 ft | 446 kts | 23° |
| 2026-04-30 07:17 | 24.53945 | -17.94276 | 33093 ft | 446 kts | 23° |
| 2026-04-30 07:18 | 24.61801 | -17.88882 | 33095 ft | 446 kts | 23° |
| 2026-04-30 07:18 | 24.67056 | -17.85266 | 33095 ft | 445 kts | 23° |
| 2026-04-30 07:19 | 24.72305 | -17.81653 | 33097 ft | 445 kts | 24° |
| 2026-04-30 07:19 | 24.77551 | -17.78040 | 33097 ft | 444 kts | 24° |
| 2026-04-30 07:20 | 24.82751 | -17.74456 | 33100 ft | 444 kts | 24° |
| 2026-04-30 07:20 | 24.87984 | -17.70850 | 33102 ft | 443 kts | 24° |
| 2026-04-30 07:21 | 24.93200 | -17.67246 | 33101 ft | 442 kts | 24° |
| 2026-04-30 07:21 | 24.98416 | -17.63665 | 33102 ft | 439 kts | 20° |
| 2026-04-30 07:21 | 25.01146 | -17.62269 | 33100 ft | 427 kts | 11° |
| 2026-04-30 07:22 | 25.06743 | -17.60507 | 33098 ft | 420 kts | 7° |
| 2026-04-30 07:22 | 25.12380 | -17.58796 | 33096 ft | 420 kts | 7° |
| 2026-04-30 07:23 | 25.18012 | -17.57076 | 33094 ft | 420 kts | 7° |
| 2026-04-30 07:23 | 25.23637 | -17.55354 | 33093 ft | 419 kts | 7° |
| 2026-04-30 07:24 | 25.29214 | -17.53647 | 33092 ft | 418 kts | 7° |
| 2026-04-30 07:24 | 25.34818 | -17.51933 | 33094 ft | 418 kts | 7° |
| 2026-04-30 07:25 | 25.40417 | -17.50216 | 33096 ft | 417 kts | 7° |
| 2026-04-30 07:25 | 25.46005 | -17.48503 | 33095 ft | 416 kts | 7° |
| 2026-04-30 07:26 | 25.51542 | -17.46811 | 33092 ft | 416 kts | 7° |
| 2026-04-30 07:26 | 25.57119 | -17.45104 | 33090 ft | 416 kts | 7° |
| 2026-04-30 07:27 | 25.61750 | -17.43685 | 33087 ft | 415 kts | 7° |
| 2026-04-30 07:27 | 25.68246 | -17.41689 | 33082 ft | 415 kts | 7° |
| 2026-04-30 07:28 | 25.72866 | -17.40260 | 33080 ft | 415 kts | 8° |
| 2026-04-30 07:28 | 25.77477 | -17.38837 | 33079 ft | 414 kts | 7° |
| 2026-04-30 07:29 | 25.84861 | -17.36558 | 33081 ft | 414 kts | 7° |
| 2026-04-30 07:29 | 25.90369 | -17.34859 | 33082 ft | 413 kts | 7° |
| 2026-04-30 07:30 | 25.98673 | -17.32305 | 33080 ft | 413 kts | 7° |
| 2026-04-30 07:31 | 26.04201 | -17.30593 | 33087 ft | 412 kts | 8° |
| 2026-04-30 07:31 | 26.09673 | -17.28886 | 33100 ft | 410 kts | 8° |
| 2026-04-30 07:32 | 26.15160 | -17.27182 | 33103 ft | 409 kts | 7° |
| 2026-04-30 07:32 | 26.20631 | -17.25493 | 33102 ft | 408 kts | 7° |
| 2026-04-30 07:33 | 26.26098 | -17.23794 | 33098 ft | 407 kts | 7° |
| 2026-04-30 07:33 | 26.31516 | -17.22116 | 33097 ft | 407 kts | 7° |
| 2026-04-30 07:34 | 26.36961 | -17.20418 | 33098 ft | 406 kts | 7° |
| 2026-04-30 07:34 | 26.42391 | -17.18723 | 33097 ft | 405 kts | 7° |
| 2026-04-30 07:35 | 26.47813 | -17.17027 | 33094 ft | 404 kts | 7° |
| 2026-04-30 07:35 | 26.53222 | -17.15339 | 33089 ft | 403 kts | 7° |
| 2026-04-30 07:36 | 26.58592 | -17.13666 | 33086 ft | 403 kts | 7° |
| 2026-04-30 07:36 | 26.63991 | -17.11980 | 33084 ft | 403 kts | 7° |
| 2026-04-30 07:37 | 26.69384 | -17.10292 | 33090 ft | 402 kts | 7° |
| 2026-04-30 07:37 | 26.73859 | -17.08885 | 33091 ft | 402 kts | 7° |
| 2026-04-30 07:38 | 26.79242 | -17.07197 | 33088 ft | 401 kts | 7° |
| 2026-04-30 07:38 | 26.85490 | -17.05238 | 33090 ft | 401 kts | 7° |
| 2026-04-30 07:39 | 26.90876 | -17.04571 | 33090 ft | 382 kts | 348° |
| 2026-04-30 07:39 | 26.96009 | -17.05720 | 33085 ft | 375 kts | 341° |
| 2026-04-30 07:40 | 27.01058 | -17.07055 | 33083 ft | 375 kts | 342° |
| 2026-04-30 07:40 | 27.06138 | -17.08381 | 33083 ft | 375 kts | 342° |
| 2026-04-30 07:41 | 27.11218 | -17.09713 | 33083 ft | 375 kts | 341° |
| 2026-04-30 07:41 | 27.15432 | -17.10822 | 33083 ft | 375 kts | 342° |
| 2026-04-30 07:42 | 27.20503 | -17.12161 | 33086 ft | 374 kts | 342° |
| 2026-04-30 07:42 | 27.25570 | -17.13501 | 33086 ft | 374 kts | 342° |
| 2026-04-30 07:43 | 27.30592 | -17.14838 | 33085 ft | 373 kts | 342° |
| 2026-04-30 07:43 | 27.35649 | -17.16181 | 33086 ft | 373 kts | 342° |
| 2026-04-30 07:44 | 27.40702 | -17.17514 | 33085 ft | 373 kts | 342° |
| 2026-04-30 07:44 | 27.46563 | -17.19066 | 33081 ft | 372 kts | 342° |
| 2026-04-30 07:45 | 27.50746 | -17.20176 | 33081 ft | 372 kts | 342° |
| 2026-04-30 07:45 | 27.55776 | -17.21513 | 33081 ft | 371 kts | 342° |
| 2026-04-30 07:46 | 27.60802 | -17.22857 | 33080 ft | 371 kts | 342° |
| 2026-04-30 07:46 | 27.65823 | -17.24190 | 33078 ft | 371 kts | 342° |
| 2026-04-30 07:47 | 27.70813 | -17.25515 | 33078 ft | 371 kts | 342° |
| 2026-04-30 07:47 | 27.75827 | -17.26859 | 33082 ft | 370 kts | 342° |
| 2026-04-30 07:48 | 27.80841 | -17.28203 | 33085 ft | 370 kts | 342° |
| 2026-04-30 07:48 | 27.85851 | -17.29541 | 33085 ft | 370 kts | 342° |
| 2026-04-30 07:49 | 27.90826 | -17.30868 | 33086 ft | 370 kts | 342° |
| 2026-04-30 07:49 | 27.95839 | -17.32213 | 33087 ft | 370 kts | 342° |
| 2026-04-30 07:50 | 28.01003 | -17.32694 | 33084 ft | 383 kts | 0° |
| 2026-04-30 07:50 | 28.06235 | -17.31052 | 33090 ft | 393 kts | 9° |
| 2026-04-30 07:51 | 28.11393 | -17.29145 | 33090 ft | 392 kts | 9° |
| 2026-04-30 07:51 | 28.16584 | -17.27232 | 33087 ft | 392 kts | 9° |
| 2026-04-30 07:52 | 28.21761 | -17.25329 | 33078 ft | 390 kts | 9° |
| 2026-04-30 07:52 | 28.26938 | -17.23421 | 33075 ft | 392 kts | 9° |
| 2026-04-30 07:53 | 28.32117 | -17.21507 | 33071 ft | 391 kts | 9° |
| 2026-04-30 07:53 | 28.37264 | -17.19603 | 33072 ft | 392 kts | 9° |
| 2026-04-30 07:54 | 28.42448 | -17.17692 | 33077 ft | 392 kts | 9° |
| 2026-04-30 07:54 | 28.47639 | -17.15778 | 33080 ft | 392 kts | 9° |
| 2026-04-30 07:55 | 28.52829 | -17.13854 | 33080 ft | 392 kts | 9° |
| 2026-04-30 07:55 | 28.57983 | -17.11933 | 33079 ft | 392 kts | 9° |
| 2026-04-30 07:56 | 28.63171 | -17.10006 | 33079 ft | 392 kts | 9° |
| 2026-04-30 07:56 | 28.68359 | -17.08087 | 33083 ft | 392 kts | 9° |
| 2026-04-30 07:57 | 28.73543 | -17.06156 | 33084 ft | 392 kts | 9° |
| 2026-04-30 07:57 | 28.78682 | -17.04232 | 33086 ft | 391 kts | 9° |
| 2026-04-30 07:58 | 28.83854 | -17.02296 | 33085 ft | 391 kts | 9° |
| 2026-04-30 07:58 | 28.89035 | -17.00365 | 33085 ft | 392 kts | 9° |
| 2026-04-30 07:59 | 28.94226 | -16.98433 | 33087 ft | 392 kts | 9° |
| 2026-04-30 07:59 | 28.99414 | -16.96493 | 33088 ft | 393 kts | 10° |
| 2026-04-30 08:00 | 29.07172 | -16.93585 | 33091 ft | 393 kts | 9° |
| 2026-04-30 08:00 | 29.12373 | -16.91632 | 33091 ft | 393 kts | 10° |
| 2026-04-30 08:01 | 29.17568 | -16.89677 | 33092 ft | 393 kts | 10° |
| 2026-04-30 08:01 | 29.22761 | -16.87727 | 33091 ft | 393 kts | 10° |
| 2026-04-30 08:02 | 29.30531 | -16.84801 | 33092 ft | 394 kts | 10° |
| 2026-04-30 08:03 | 29.40946 | -16.80883 | 33088 ft | 394 kts | 10° |
| 2026-04-30 08:04 | 29.46117 | -16.78929 | 33087 ft | 394 kts | 10° |
| 2026-04-30 08:04 | 29.51325 | -16.76958 | 33084 ft | 395 kts | 10° |
| 2026-04-30 08:05 | 29.56545 | -16.74982 | 33084 ft | 395 kts | 10° |
| 2026-04-30 08:05 | 29.61764 | -16.73009 | 33083 ft | 395 kts | 10° |
| 2026-04-30 08:06 | 29.66990 | -16.71026 | 33083 ft | 395 kts | 11° |
| 2026-04-30 08:06 | 29.72176 | -16.69056 | 33081 ft | 396 kts | 11° |
| 2026-04-30 08:07 | 29.77415 | -16.67066 | 33081 ft | 396 kts | 11° |
| 2026-04-30 08:07 | 29.82657 | -16.65068 | 33082 ft | 397 kts | 11° |
| 2026-04-30 08:08 | 29.87900 | -16.63066 | 33081 ft | 397 kts | 11° |
| 2026-04-30 08:08 | 29.93116 | -16.61078 | 33083 ft | 397 kts | 11° |
| 2026-04-30 08:09 | 29.98370 | -16.59076 | 33081 ft | 398 kts | 11° |
| 2026-04-30 08:09 | 30.03631 | -16.57057 | 33070 ft | 399 kts | 11° |
| 2026-04-30 08:10 | 30.08903 | -16.55038 | 33065 ft | 400 kts | 11° |
| 2026-04-30 08:10 | 30.14160 | -16.53024 | 33071 ft | 402 kts | 11° |
| 2026-04-30 08:11 | 30.19474 | -16.51000 | 33074 ft | 402 kts | 11° |
| 2026-04-30 08:11 | 30.24786 | -16.48959 | 33078 ft | 402 kts | 11° |
| 2026-04-30 08:12 | 30.30096 | -16.46909 | 33075 ft | 402 kts | 11° |
| 2026-04-30 08:12 | 30.35402 | -16.44860 | 33072 ft | 402 kts | 11° |
| 2026-04-30 08:13 | 30.40672 | -16.42830 | 33075 ft | 402 kts | 11° |
| 2026-04-30 08:13 | 30.45990 | -16.40782 | 33071 ft | 403 kts | 11° |
| 2026-04-30 08:14 | 30.51313 | -16.38728 | 33074 ft | 403 kts | 11° |
| 2026-04-30 08:14 | 30.56640 | -16.36669 | 33070 ft | 403 kts | 11° |
| 2026-04-30 08:15 | 30.61930 | -16.34622 | 33066 ft | 404 kts | 11° |
| 2026-04-30 08:15 | 30.67268 | -16.32550 | 33068 ft | 405 kts | 11° |
| 2026-04-30 08:16 | 30.72615 | -16.30477 | 33074 ft | 405 kts | 11° |
| 2026-04-30 08:16 | 30.77969 | -16.28397 | 33074 ft | 406 kts | 11° |
| 2026-04-30 08:17 | 30.83331 | -16.26313 | 33075 ft | 407 kts | 11° |
| 2026-04-30 08:17 | 30.88680 | -16.24239 | 33075 ft | 408 kts | 12° |
| 2026-04-30 08:18 | 30.94068 | -16.22145 | 33075 ft | 409 kts | 12° |
| 2026-04-30 08:18 | 30.99487 | -16.20031 | 33172 ft | 414 kts | 12° |
| 2026-04-30 08:18 | 31.02221 | -16.18951 | 33390 ft | 416 kts | 12° |
| 2026-04-30 08:19 | 31.04953 | -16.17840 | 33654 ft | 416 kts | 13° |
| 2026-04-30 08:19 | 31.07643 | -16.16726 | 33952 ft | 415 kts | 13° |
| 2026-04-30 08:19 | 31.10366 | -16.15594 | 34071 ft | 415 kts | 13° |
| 2026-04-30 08:20 | 31.15807 | -16.13334 | 34084 ft | 415 kts | 13° |
| 2026-04-30 08:20 | 31.21270 | -16.11089 | 34083 ft | 417 kts | 13° |
| 2026-04-30 08:21 | 31.26747 | -16.08840 | 34079 ft | 418 kts | 13° |
| 2026-04-30 08:21 | 31.32210 | -16.06589 | 34071 ft | 420 kts | 13° |
| 2026-04-30 08:22 | 31.37730 | -16.04300 | 34069 ft | 421 kts | 13° |
| 2026-04-30 08:22 | 31.43262 | -16.02005 | 34061 ft | 422 kts | 13° |
| 2026-04-30 08:23 | 31.48808 | -15.99696 | 34056 ft | 424 kts | 13° |
| 2026-04-30 08:23 | 31.54377 | -15.97385 | 34046 ft | 426 kts | 14° |
| 2026-04-30 08:24 | 31.59937 | -15.95081 | 34046 ft | 428 kts | 14° |
| 2026-04-30 08:24 | 31.65560 | -15.92746 | 34045 ft | 430 kts | 14° |
| 2026-04-30 08:25 | 31.71201 | -15.90394 | 34047 ft | 431 kts | 14° |
| 2026-04-30 08:25 | 31.76860 | -15.88032 | 34047 ft | 431 kts | 14° |
| 2026-04-30 08:26 | 31.82521 | -15.85673 | 34045 ft | 432 kts | 14° |
| 2026-04-30 08:26 | 31.88145 | -15.83325 | 34046 ft | 432 kts | 14° |
| 2026-04-30 08:27 | 31.93816 | -15.80939 | 34048 ft | 433 kts | 14° |
| 2026-04-30 08:27 | 31.99486 | -15.78560 | 34050 ft | 433 kts | 14° |
| 2026-04-30 08:28 | 32.05158 | -15.76179 | 34050 ft | 433 kts | 15° |
| 2026-04-30 08:28 | 32.10795 | -15.73804 | 34056 ft | 433 kts | 14° |
| 2026-04-30 08:29 | 32.16472 | -15.71418 | 34064 ft | 434 kts | 15° |
| 2026-04-30 08:29 | 32.22164 | -15.69027 | 34068 ft | 434 kts | 15° |
| 2026-04-30 08:30 | 32.27857 | -15.66620 | 34068 ft | 435 kts | 15° |
| 2026-04-30 08:30 | 32.33557 | -15.64205 | 34071 ft | 436 kts | 15° |
| 2026-04-30 08:31 | 32.39229 | -15.61803 | 34064 ft | 436 kts | 15° |
| 2026-04-30 08:31 | 32.44956 | -15.59383 | 34061 ft | 438 kts | 15° |
| 2026-04-30 08:32 | 32.50695 | -15.56945 | 34060 ft | 439 kts | 15° |
| 2026-04-30 08:32 | 32.56965 | -15.54277 | 34060 ft | 441 kts | 16° |
| 2026-04-30 08:33 | 32.62731 | -15.51816 | 34058 ft | 441 kts | 16° |
| 2026-04-30 08:33 | 32.68484 | -15.49363 | 34059 ft | 443 kts | 16° |
| 2026-04-30 08:34 | 32.74289 | -15.46894 | 34053 ft | 444 kts | 16° |
| 2026-04-30 08:34 | 32.80113 | -15.44412 | 34049 ft | 445 kts | 16° |
| 2026-04-30 08:35 | 32.85950 | -15.41912 | 34049 ft | 446 kts | 17° |
| 2026-04-30 08:35 | 32.91798 | -15.39400 | 34050 ft | 448 kts | 17° |
| 2026-04-30 08:36 | 32.97664 | -15.36879 | 34050 ft | 449 kts | 17° |
| 2026-04-30 08:36 | 33.03511 | -15.34368 | 34051 ft | 450 kts | 17° |
| 2026-04-30 08:37 | 33.09414 | -15.31831 | 34053 ft | 451 kts | 17° |
| 2026-04-30 08:37 | 33.15322 | -15.29286 | 34059 ft | 452 kts | 17° |
| 2026-04-30 08:38 | 33.21245 | -15.26733 | 34061 ft | 453 kts | 17° |
| 2026-04-30 08:38 | 33.27135 | -15.24186 | 34062 ft | 454 kts | 17° |
| 2026-04-30 08:39 | 33.33081 | -15.21605 | 34062 ft | 455 kts | 18° |
| 2026-04-30 08:39 | 33.39033 | -15.19024 | 34064 ft | 455 kts | 18° |
| 2026-04-30 08:40 | 33.44989 | -15.16440 | 34065 ft | 456 kts | 18° |
| 2026-04-30 08:40 | 33.50909 | -15.13864 | 34064 ft | 456 kts | 18° |
| 2026-04-30 08:41 | 33.56883 | -15.11265 | 34068 ft | 457 kts | 18° |
| 2026-04-30 08:41 | 33.62869 | -15.08661 | 34071 ft | 458 kts | 18° |
| 2026-04-30 08:42 | 33.68857 | -15.06049 | 34070 ft | 458 kts | 18° |
| 2026-04-30 08:42 | 33.74846 | -15.03424 | 34070 ft | 458 kts | 18° |
| 2026-04-30 08:43 | 33.80787 | -15.00821 | 34065 ft | 458 kts | 18° |
| 2026-04-30 08:43 | 33.86776 | -14.98199 | 34065 ft | 458 kts | 18° |
| 2026-04-30 08:44 | 33.92766 | -14.95560 | 34066 ft | 458 kts | 18° |
| 2026-04-30 08:44 | 33.98751 | -14.92921 | 34065 ft | 458 kts | 18° |
| 2026-04-30 08:45 | 34.04743 | -14.90281 | 34061 ft | 459 kts | 19° |
| 2026-04-30 08:45 | 34.10700 | -14.87653 | 34061 ft | 460 kts | 19° |
| 2026-04-30 08:46 | 34.16718 | -14.84993 | 34058 ft | 461 kts | 19° |
| 2026-04-30 08:46 | 34.22748 | -14.82327 | 34059 ft | 462 kts | 19° |
| 2026-04-30 08:47 | 34.27758 | -14.80101 | 34061 ft | 462 kts | 19° |
| 2026-04-30 08:47 | 34.34776 | -14.76984 | 34065 ft | 462 kts | 19° |
| 2026-04-30 08:48 | 34.40814 | -14.74310 | 34065 ft | 462 kts | 19° |
| 2026-04-30 08:48 | 34.45873 | -14.72062 | 34064 ft | 462 kts | 19° |
| 2026-04-30 08:49 | 34.51866 | -14.69392 | 34063 ft | 462 kts | 19° |
| 2026-04-30 08:49 | 34.58913 | -14.66239 | 34061 ft | 462 kts | 19° |
| 2026-04-30 08:50 | 34.63928 | -14.63983 | 34062 ft | 462 kts | 19° |
| 2026-04-30 08:50 | 34.70939 | -14.60838 | 34059 ft | 462 kts | 19° |
| 2026-04-30 08:51 | 34.76971 | -14.58133 | 34063 ft | 461 kts | 19° |
| 2026-04-30 08:51 | 34.82999 | -14.55431 | 34059 ft | 462 kts | 19° |
| 2026-04-30 08:52 | 34.88010 | -14.53175 | 34059 ft | 462 kts | 19° |
| 2026-04-30 08:52 | 34.94035 | -14.50450 | 34057 ft | 462 kts | 19° |
| 2026-04-30 08:53 | 35.01049 | -14.47288 | 34053 ft | 462 kts | 19° |
| 2026-04-30 08:53 | 35.06065 | -14.45017 | 34052 ft | 462 kts | 19° |
| 2026-04-30 08:54 | 35.12097 | -14.42279 | 34048 ft | 462 kts | 19° |
| 2026-04-30 08:54 | 35.18128 | -14.39550 | 34050 ft | 462 kts | 19° |
| 2026-04-30 08:55 | 35.24153 | -14.36813 | 34049 ft | 462 kts | 19° |
| 2026-04-30 08:55 | 35.30176 | -14.34073 | 34050 ft | 462 kts | 19° |
| 2026-04-30 08:56 | 35.36159 | -14.31350 | 34052 ft | 462 kts | 19° |
| 2026-04-30 08:56 | 35.42187 | -14.28595 | 34054 ft | 462 kts | 20° |
| 2026-04-30 08:57 | 35.48211 | -14.25829 | 34055 ft | 463 kts | 20° |
| 2026-04-30 08:57 | 35.53698 | -14.23321 | 34056 ft | 463 kts | 20° |
| 2026-04-30 08:58 | 35.57226 | -14.21706 | 34058 ft | 463 kts | 20° |
| 2026-04-30 08:58 | 35.60665 | -14.20127 | 34060 ft | 463 kts | 20° |
| 2026-04-30 08:59 | 35.66705 | -14.17353 | 34065 ft | 463 kts | 20° |
| 2026-04-30 08:59 | 35.72740 | -14.14569 | 34069 ft | 463 kts | 20° |
| 2026-04-30 09:00 | 35.78737 | -14.11809 | 34069 ft | 463 kts | 20° |
| 2026-04-30 09:00 | 35.84778 | -14.09027 | 34073 ft | 463 kts | 20° |
| 2026-04-30 09:01 | 35.90801 | -14.06227 | 34071 ft | 463 kts | 20° |
| 2026-04-30 09:01 | 35.96831 | -14.03426 | 34073 ft | 462 kts | 20° |
| 2026-04-30 09:02 | 36.05822 | -13.99260 | 34069 ft | 462 kts | 20° |
| 2026-04-30 09:02 | 36.09889 | -13.97378 | 34068 ft | 462 kts | 20° |
| 2026-04-30 09:03 | 36.14110 | -13.95421 | 34064 ft | 462 kts | 20° |
| 2026-04-30 09:03 | 36.20124 | -13.92607 | 34062 ft | 462 kts | 20° |
| 2026-04-30 09:04 | 36.26128 | -13.89788 | 34058 ft | 462 kts | 20° |
| 2026-04-30 09:04 | 36.32096 | -13.86998 | 34054 ft | 461 kts | 20° |
| 2026-04-30 09:05 | 36.38098 | -13.84197 | 34052 ft | 461 kts | 20° |
| 2026-04-30 09:05 | 36.44110 | -13.81381 | 34052 ft | 462 kts | 20° |
| 2026-04-30 09:06 | 36.50115 | -13.78551 | 34054 ft | 462 kts | 20° |
| 2026-04-30 09:06 | 36.56118 | -13.75723 | 34053 ft | 462 kts | 20° |
| 2026-04-30 09:07 | 36.62104 | -13.72902 | 34050 ft | 463 kts | 20° |
| 2026-04-30 09:07 | 36.68125 | -13.70054 | 34050 ft | 463 kts | 20° |
| 2026-04-30 09:08 | 36.74157 | -13.67199 | 34052 ft | 463 kts | 20° |
| 2026-04-30 09:08 | 36.80189 | -13.64346 | 34056 ft | 463 kts | 20° |
| 2026-04-30 09:09 | 36.83209 | -13.62918 | 34058 ft | 463 kts | 20° |
| 2026-04-30 09:09 | 36.92335 | -13.58561 | 34060 ft | 463 kts | 20° |
| 2026-04-30 09:10 | 36.98352 | -13.55692 | 34057 ft | 463 kts | 20° |
| 2026-04-30 09:10 | 37.04375 | -13.52827 | 34056 ft | 463 kts | 20° |
| 2026-04-30 09:11 | 37.10390 | -13.49958 | 34056 ft | 463 kts | 20° |
| 2026-04-30 09:11 | 37.16400 | -13.47083 | 34053 ft | 462 kts | 20° |
| 2026-04-30 09:12 | 37.22366 | -13.44218 | 34053 ft | 462 kts | 20° |
| 2026-04-30 09:12 | 37.28377 | -13.41334 | 34054 ft | 462 kts | 20° |
| 2026-04-30 09:13 | 37.34382 | -13.38434 | 34057 ft | 462 kts | 21° |
| 2026-04-30 09:13 | 37.40386 | -13.35535 | 34058 ft | 462 kts | 20° |
| 2026-04-30 09:14 | 37.46391 | -13.32645 | 34059 ft | 462 kts | 21° |
| 2026-04-30 09:14 | 37.52350 | -13.29757 | 34057 ft | 462 kts | 21° |
| 2026-04-30 09:15 | 37.58353 | -13.26848 | 34059 ft | 462 kts | 21° |
| 2026-04-30 09:15 | 37.64362 | -13.23933 | 34064 ft | 463 kts | 21° |
| 2026-04-30 09:16 | 37.70372 | -13.21011 | 34070 ft | 463 kts | 21° |
| 2026-04-30 09:16 | 37.76379 | -13.18081 | 34071 ft | 463 kts | 21° |
| 2026-04-30 09:17 | 37.82350 | -13.15166 | 34074 ft | 463 kts | 21° |
| 2026-04-30 09:17 | 37.88354 | -13.12230 | 34076 ft | 462 kts | 21° |
| 2026-04-30 09:18 | 37.94350 | -13.09289 | 34073 ft | 462 kts | 21° |
| 2026-04-30 09:18 | 38.00349 | -13.06336 | 34070 ft | 462 kts | 21° |
| 2026-04-30 09:19 | 38.06339 | -13.03389 | 34073 ft | 462 kts | 21° |
| 2026-04-30 09:19 | 38.12293 | -13.00467 | 34068 ft | 462 kts | 21° |
| 2026-04-30 09:20 | 38.18285 | -12.97519 | 34070 ft | 462 kts | 21° |
| 2026-04-30 09:20 | 38.24278 | -12.94556 | 34068 ft | 462 kts | 21° |
| 2026-04-30 09:21 | 38.30268 | -12.91592 | 34066 ft | 462 kts | 21° |
| 2026-04-30 09:21 | 38.36210 | -12.88649 | 34067 ft | 462 kts | 21° |
| 2026-04-30 09:22 | 38.42198 | -12.85663 | 34069 ft | 462 kts | 21° |
| 2026-04-30 09:22 | 38.48186 | -12.82681 | 34068 ft | 461 kts | 21° |
| 2026-04-30 09:23 | 38.54167 | -12.79701 | 34066 ft | 461 kts | 21° |
| 2026-04-30 09:23 | 38.60150 | -12.76724 | 34069 ft | 462 kts | 21° |
| 2026-04-30 09:24 | 38.66095 | -12.73750 | 34070 ft | 461 kts | 21° |
| 2026-04-30 09:24 | 38.72067 | -12.70742 | 34074 ft | 462 kts | 21° |
| 2026-04-30 09:25 | 38.75076 | -12.69233 | 34216 ft | 466 kts | 21° |
| 2026-04-30 09:25 | 38.78105 | -12.67717 | 34427 ft | 468 kts | 21° |
| 2026-04-30 09:25 | 38.81136 | -12.66198 | 34679 ft | 468 kts | 21° |
| 2026-04-30 09:25 | 38.84166 | -12.64671 | 34915 ft | 468 kts | 21° |
| 2026-04-30 09:26 | 38.87199 | -12.63141 | 35159 ft | 468 kts | 21° |
| 2026-04-30 09:26 | 38.90226 | -12.61615 | 35403 ft | 468 kts | 21° |
| 2026-04-30 09:26 | 38.93256 | -12.60087 | 35636 ft | 468 kts | 21° |
| 2026-04-30 09:26 | 38.96246 | -12.58580 | 35843 ft | 468 kts | 21° |
| 2026-04-30 09:27 | 38.99277 | -12.57049 | 36026 ft | 468 kts | 21° |
| 2026-04-30 09:27 | 39.02302 | -12.55517 | 36072 ft | 468 kts | 21° |
| 2026-04-30 09:27 | 39.08356 | -12.52447 | 36073 ft | 467 kts | 21° |
| 2026-04-30 09:28 | 39.14410 | -12.49372 | 36082 ft | 468 kts | 21° |
| 2026-04-30 09:28 | 39.20471 | -12.46296 | 36082 ft | 468 kts | 21° |
| 2026-04-30 09:29 | 39.26527 | -12.43206 | 36081 ft | 468 kts | 21° |
| 2026-04-30 09:29 | 39.32538 | -12.40128 | 36078 ft | 468 kts | 21° |
| 2026-04-30 09:30 | 39.38577 | -12.37027 | 36074 ft | 468 kts | 21° |
| 2026-04-30 09:30 | 39.44637 | -12.33928 | 36072 ft | 468 kts | 21° |
| 2026-04-30 09:31 | 39.50686 | -12.30826 | 36071 ft | 468 kts | 21° |
| 2026-04-30 09:31 | 39.56696 | -12.27742 | 36070 ft | 468 kts | 21° |
| 2026-04-30 09:32 | 39.62739 | -12.24622 | 36070 ft | 468 kts | 21° |
| 2026-04-30 09:32 | 39.68784 | -12.21498 | 36071 ft | 468 kts | 21° |
| 2026-04-30 09:33 | 39.74830 | -12.18372 | 36071 ft | 467 kts | 21° |
| 2026-04-30 09:33 | 39.80873 | -12.15241 | 36073 ft | 467 kts | 21° |
| 2026-04-30 09:34 | 39.86913 | -12.12108 | 36072 ft | 467 kts | 21° |
| 2026-04-30 09:34 | 39.92910 | -12.08988 | 36072 ft | 467 kts | 21° |
| 2026-04-30 09:35 | 39.98952 | -12.05834 | 36073 ft | 468 kts | 21° |
| 2026-04-30 09:35 | 40.04992 | -12.02684 | 36074 ft | 468 kts | 21° |
| 2026-04-30 09:36 | 40.11034 | -11.99533 | 36076 ft | 468 kts | 21° |
| 2026-04-30 09:36 | 40.17069 | -11.96361 | 36074 ft | 467 kts | 21° |
| 2026-04-30 09:37 | 40.23064 | -11.93199 | 36075 ft | 467 kts | 21° |
| 2026-04-30 09:37 | 40.29099 | -11.90033 | 36075 ft | 467 kts | 21° |
| 2026-04-30 09:38 | 40.35135 | -11.86853 | 36074 ft | 468 kts | 21° |
| 2026-04-30 09:38 | 40.41170 | -11.83668 | 36078 ft | 468 kts | 21° |
| 2026-04-30 09:39 | 40.47208 | -11.80478 | 36076 ft | 468 kts | 21° |
| 2026-04-30 09:39 | 40.53243 | -11.77278 | 36080 ft | 468 kts | 21° |
| 2026-04-30 09:40 | 40.59238 | -11.74088 | 36084 ft | 468 kts | 21° |
| 2026-04-30 09:40 | 40.65280 | -11.70875 | 36084 ft | 468 kts | 21° |
| 2026-04-30 09:41 | 40.71318 | -11.67651 | 36087 ft | 468 kts | 21° |
| 2026-04-30 09:41 | 40.77356 | -11.64424 | 36082 ft | 468 kts | 21° |
| 2026-04-30 09:42 | 40.83392 | -11.61186 | 36080 ft | 468 kts | 21° |
| 2026-04-30 09:42 | 40.89425 | -11.57949 | 36079 ft | 468 kts | 20° |
| 2026-04-30 09:43 | 40.95424 | -11.54732 | 36078 ft | 468 kts | 20° |
| 2026-04-30 09:43 | 41.01463 | -11.51483 | 36075 ft | 468 kts | 20° |
| 2026-04-30 09:44 | 41.07501 | -11.48224 | 36077 ft | 469 kts | 20° |
| 2026-04-30 09:44 | 41.13542 | -11.44956 | 36078 ft | 469 kts | 20° |
| 2026-04-30 09:45 | 41.19577 | -11.41679 | 36075 ft | 469 kts | 20° |
| 2026-04-30 09:45 | 41.25572 | -11.38420 | 36075 ft | 469 kts | 20° |
| 2026-04-30 09:46 | 41.31607 | -11.35135 | 36074 ft | 468 kts | 20° |
| 2026-04-30 09:46 | 41.37634 | -11.31850 | 36076 ft | 468 kts | 20° |
| 2026-04-30 09:47 | 41.43665 | -11.28551 | 36074 ft | 468 kts | 20° |
| 2026-04-30 09:47 | 41.49657 | -11.25276 | 36077 ft | 468 kts | 20° |
| 2026-04-30 09:48 | 41.55687 | -11.21972 | 36077 ft | 468 kts | 20° |
| 2026-04-30 09:48 | 41.61712 | -11.18654 | 36077 ft | 469 kts | 20° |
| 2026-04-30 09:49 | 41.67740 | -11.15338 | 36082 ft | 469 kts | 20° |
| 2026-04-30 09:49 | 41.73771 | -11.12018 | 36086 ft | 468 kts | 20° |
| 2026-04-30 09:50 | 41.79756 | -11.08705 | 36084 ft | 468 kts | 20° |
| 2026-04-30 09:50 | 41.85776 | -11.05369 | 36083 ft | 468 kts | 20° |
| 2026-04-30 09:51 | 41.91797 | -11.02031 | 36085 ft | 468 kts | 20° |
| 2026-04-30 09:51 | 41.97816 | -10.98676 | 36089 ft | 468 kts | 20° |
| 2026-04-30 09:52 | 42.03839 | -10.95320 | 36085 ft | 469 kts | 20° |
| 2026-04-30 09:52 | 42.09862 | -10.91951 | 36087 ft | 469 kts | 20° |
| 2026-04-30 09:53 | 42.15840 | -10.88603 | 36088 ft | 468 kts | 20° |
| 2026-04-30 09:53 | 42.21860 | -10.85225 | 36091 ft | 469 kts | 20° |
| 2026-04-30 09:54 | 42.27877 | -10.81843 | 36092 ft | 469 kts | 20° |
| 2026-04-30 09:54 | 42.33966 | -10.78712 | 36093 ft | 467 kts | 16° |
| 2026-04-30 09:55 | 42.40121 | -10.75912 | 36091 ft | 466 kts | 15° |
| 2026-04-30 09:55 | 42.46228 | -10.73135 | 36087 ft | 467 kts | 16° |
| 2026-04-30 09:56 | 42.52362 | -10.70237 | 36085 ft | 466 kts | 16° |
| 2026-04-30 09:56 | 42.58479 | -10.67296 | 36084 ft | 466 kts | 17° |
| 2026-04-30 09:57 | 42.64588 | -10.64350 | 36084 ft | 466 kts | 17° |
| 2026-04-30 09:57 | 42.70664 | -10.61440 | 36082 ft | 466 kts | 16° |
| 2026-04-30 09:58 | 42.76773 | -10.58516 | 36083 ft | 465 kts | 16° |
| 2026-04-30 09:58 | 42.82879 | -10.55577 | 36079 ft | 466 kts | 16° |
| 2026-04-30 09:59 | 42.95057 | -10.49709 | 36081 ft | 465 kts | 16° |
| 2026-04-30 10:00 | 43.04205 | -10.45281 | 36078 ft | 465 kts | 17° |
| 2026-04-30 10:01 | 43.13357 | -10.40830 | 36073 ft | 465 kts | 16° |
| 2026-04-30 10:02 | 43.21477 | -10.36875 | 36074 ft | 465 kts | 16° |
| 2026-04-30 10:02 | 43.28568 | -10.33421 | 36078 ft | 465 kts | 16° |
| 2026-04-30 10:03 | 43.34666 | -10.30436 | 36082 ft | 465 kts | 17° |
| 2026-04-30 10:03 | 43.40755 | -10.27444 | 36073 ft | 465 kts | 16° |
| 2026-04-30 10:04 | 43.46844 | -10.24452 | 36069 ft | 465 kts | 16° |
| 2026-04-30 10:04 | 43.52886 | -10.21473 | 36063 ft | 464 kts | 16° |
| 2026-04-30 10:05 | 43.58970 | -10.18467 | 36064 ft | 464 kts | 16° |
| 2026-04-30 10:05 | 43.65047 | -10.15460 | 36063 ft | 464 kts | 16° |
| 2026-04-30 10:06 | 43.71121 | -10.12453 | 36062 ft | 464 kts | 16° |
| 2026-04-30 10:06 | 43.77147 | -10.09450 | 36065 ft | 464 kts | 17° |
| 2026-04-30 10:07 | 43.83218 | -10.06423 | 36066 ft | 464 kts | 16° |
| 2026-04-30 10:07 | 43.89287 | -10.03396 | 36064 ft | 464 kts | 17° |
| 2026-04-30 10:08 | 43.95360 | -10.00360 | 36061 ft | 464 kts | 16° |
| 2026-04-30 10:08 | 44.01396 | -9.97341 | 36060 ft | 464 kts | 16° |
| 2026-04-30 10:09 | 44.07469 | -9.94299 | 36065 ft | 464 kts | 17° |
| 2026-04-30 10:09 | 44.13536 | -9.91239 | 36062 ft | 464 kts | 17° |
| 2026-04-30 10:10 | 44.19607 | -9.88170 | 36066 ft | 464 kts | 17° |
| 2026-04-30 10:10 | 44.25676 | -9.85104 | 36063 ft | 464 kts | 17° |
| 2026-04-30 10:11 | 44.31704 | -9.82058 | 36068 ft | 464 kts | 17° |
| 2026-04-30 10:11 | 44.37763 | -9.78980 | 36063 ft | 463 kts | 17° |
| 2026-04-30 10:12 | 44.43823 | -9.75894 | 36064 ft | 464 kts | 17° |
| 2026-04-30 10:12 | 44.46859 | -9.74345 | 36197 ft | 466 kts | 17° |
| 2026-04-30 10:12 | 44.49864 | -9.72813 | 36390 ft | 466 kts | 17° |
| 2026-04-30 10:12 | 44.52907 | -9.71257 | 36603 ft | 466 kts | 17° |
| 2026-04-30 10:13 | 44.55952 | -9.69691 | 36806 ft | 465 kts | 17° |
| 2026-04-30 10:13 | 44.58987 | -9.68129 | 37009 ft | 464 kts | 18° |
| 2026-04-30 10:13 | 44.62010 | -9.66576 | 37056 ft | 461 kts | 18° |
| 2026-04-30 10:14 | 44.68009 | -9.63504 | 37055 ft | 457 kts | 17° |
| 2026-04-30 10:14 | 44.76969 | -9.58902 | 37054 ft | 457 kts | 18° |
| 2026-04-30 10:15 | 44.81927 | -9.56340 | 37053 ft | 457 kts | 18° |
| 2026-04-30 10:15 | 44.83905 | -9.55315 | 37066 ft | 457 kts | 18° |